sensor_id;sensor_type;location;lat;lon;timestamp;P1;durP1;ratioP1;P2;durP2;ratioP2
83026;SDS011;72842;56.038;12.706;2024-02-16T00:01:17;4.20;;;2.58;;
83026;SDS011;72842;56.038;12.706;2024-02-16T00:03:42;4.45;;;3.28;;
83026;SDS011;72842;56.038;12.706;2024-02-16T00:06:07;4.65;;;2.53;;
83026;SDS011;72842;56.038;12.706;2024-02-16T00:08:33;5.07;;;2.80;;
83026;SDS011;72842;56.038;12.706;2024-02-16T00:10:59;5.20;;;3.30;;
83026;SDS011;72842;56.038;12.706;2024-02-16T00:13:25;4.82;;;2.70;;
83026;SDS011;72842;56.038;12.706;2024-02-16T00:15:50;5.72;;;3.15;;
83026;SDS011;72842;56.038;12.706;2024-02-16T00:18:16;5.05;;;2.80;;
83026;SDS011;72842;56.038;12.706;2024-02-16T00:20:41;4.45;;;2.60;;
83026;SDS011;72842;56.038;12.706;2024-02-16T00:23:07;5.47;;;3.50;;
83026;SDS011;72842;56.038;12.706;2024-02-16T00:25:32;7.30;;;2.75;;
83026;SDS011;72842;56.038;12.706;2024-02-16T00:27:58;4.50;;;3.00;;
83026;SDS011;72842;56.038;12.706;2024-02-16T00:30:24;5.57;;;2.60;;
83026;SDS011;72842;56.038;12.706;2024-02-16T00:32:50;5.57;;;3.75;;
83026;SDS011;72842;56.038;12.706;2024-02-16T00:35:17;6.43;;;3.67;;
83026;SDS011;72842;56.038;12.706;2024-02-16T00:37:44;5.25;;;2.75;;
83026;SDS011;72842;56.038;12.706;2024-02-16T00:40:11;5.45;;;2.88;;
83026;SDS011;72842;56.038;12.706;2024-02-16T00:42:37;7.03;;;3.53;;
83026;SDS011;72842;56.038;12.706;2024-02-16T00:45:03;6.38;;;3.17;;
83026;SDS011;72842;56.038;12.706;2024-02-16T00:47:29;5.13;;;2.80;;
83026;SDS011;72842;56.038;12.706;2024-02-16T00:49:54;4.65;;;2.70;;
83026;SDS011;72842;56.038;12.706;2024-02-16T00:52:21;5.45;;;3.63;;
83026;SDS011;72842;56.038;12.706;2024-02-16T00:54:47;5.45;;;2.97;;
83026;SDS011;72842;56.038;12.706;2024-02-16T00:57:13;4.32;;;3.28;;
83026;SDS011;72842;56.038;12.706;2024-02-16T00:59:39;5.22;;;2.67;;
83026;SDS011;72842;56.038;12.706;2024-02-16T01:02:05;5.43;;;2.58;;
83026;SDS011;72842;56.038;12.706;2024-02-16T01:04:31;6.88;;;3.60;;
83026;SDS011;72842;56.038;12.706;2024-02-16T01:06:57;5.63;;;2.67;;
83026;SDS011;72842;56.038;12.706;2024-02-16T01:09:22;4.50;;;2.42;;
83026;SDS011;72842;56.038;12.706;2024-02-16T01:11:48;5.13;;;3.67;;
83026;SDS011;72842;56.038;12.706;2024-02-16T01:14:14;6.47;;;3.45;;
83026;SDS011;72842;56.038;12.706;2024-02-16T01:16:39;5.38;;;2.80;;
83026;SDS011;72842;56.038;12.706;2024-02-16T01:19:05;5.80;;;3.03;;
83026;SDS011;72842;56.038;12.706;2024-02-16T01:21:32;6.22;;;3.65;;
83026;SDS011;72842;56.038;12.706;2024-02-16T01:23:58;4.45;;;2.35;;
83026;SDS011;72842;56.038;12.706;2024-02-16T01:26:25;6.78;;;3.55;;
83026;SDS011;72842;56.038;12.706;2024-02-16T01:28:51;6.57;;;3.50;;
83026;SDS011;72842;56.038;12.706;2024-02-16T01:31:16;5.43;;;3.58;;
83026;SDS011;72842;56.038;12.706;2024-02-16T01:33:42;7.43;;;3.50;;
83026;SDS011;72842;56.038;12.706;2024-02-16T01:36:07;5.95;;;3.15;;
83026;SDS011;72842;56.038;12.706;2024-02-16T01:38:33;6.00;;;3.65;;
83026;SDS011;72842;56.038;12.706;2024-02-16T01:40:58;6.70;;;3.72;;
83026;SDS011;72842;56.038;12.706;2024-02-16T01:43:24;5.53;;;2.85;;
83026;SDS011;72842;56.038;12.706;2024-02-16T01:45:49;5.80;;;2.90;;
83026;SDS011;72842;56.038;12.706;2024-02-16T01:48:15;5.13;;;2.85;;
83026;SDS011;72842;56.038;12.706;2024-02-16T01:50:44;5.90;;;3.38;;
83026;SDS011;72842;56.038;12.706;2024-02-16T01:53:11;7.78;;;3.25;;
83026;SDS011;72842;56.038;12.706;2024-02-16T01:55:37;5.78;;;3.67;;
83026;SDS011;72842;56.038;12.706;2024-02-16T01:58:03;6.00;;;2.88;;
83026;SDS011;72842;56.038;12.706;2024-02-16T02:00:29;4.88;;;3.38;;
83026;SDS011;72842;56.038;12.706;2024-02-16T02:02:55;5.63;;;4.07;;
83026;SDS011;72842;56.038;12.706;2024-02-16T02:05:22;6.47;;;4.18;;
83026;SDS011;72842;56.038;12.706;2024-02-16T02:07:48;6.30;;;4.20;;
83026;SDS011;72842;56.038;12.706;2024-02-16T02:10:14;7.35;;;3.80;;
83026;SDS011;72842;56.038;12.706;2024-02-16T02:12:39;6.43;;;3.20;;
83026;SDS011;72842;56.038;12.706;2024-02-16T02:15:07;6.53;;;3.70;;
83026;SDS011;72842;56.038;12.706;2024-02-16T02:17:33;5.57;;;3.72;;
83026;SDS011;72842;56.038;12.706;2024-02-16T02:19:59;6.63;;;3.60;;
83026;SDS011;72842;56.038;12.706;2024-02-16T02:22:25;6.72;;;3.92;;
83026;SDS011;72842;56.038;12.706;2024-02-16T02:24:52;6.90;;;3.63;;
83026;SDS011;72842;56.038;12.706;2024-02-16T02:27:19;5.38;;;3.88;;
83026;SDS011;72842;56.038;12.706;2024-02-16T02:29:44;6.15;;;4.18;;
83026;SDS011;72842;56.038;12.706;2024-02-16T02:32:10;5.78;;;3.60;;
83026;SDS011;72842;56.038;12.706;2024-02-16T02:34:35;5.88;;;3.38;;
83026;SDS011;72842;56.038;12.706;2024-02-16T02:37:04;7.00;;;3.53;;
83026;SDS011;72842;56.038;12.706;2024-02-16T02:39:30;6.03;;;3.33;;
83026;SDS011;72842;56.038;12.706;2024-02-16T02:41:56;5.75;;;3.90;;
83026;SDS011;72842;56.038;12.706;2024-02-16T02:44:22;6.03;;;3.65;;
83026;SDS011;72842;56.038;12.706;2024-02-16T02:46:49;6.75;;;3.70;;
83026;SDS011;72842;56.038;12.706;2024-02-16T02:49:14;6.70;;;3.38;;
83026;SDS011;72842;56.038;12.706;2024-02-16T02:51:40;6.65;;;4.47;;
83026;SDS011;72842;56.038;12.706;2024-02-16T02:54:05;5.22;;;4.43;;
83026;SDS011;72842;56.038;12.706;2024-02-16T02:56:31;7.10;;;3.60;;
83026;SDS011;72842;56.038;12.706;2024-02-16T02:58:57;7.45;;;4.60;;
83026;SDS011;72842;56.038;12.706;2024-02-16T03:01:22;7.18;;;4.25;;
83026;SDS011;72842;56.038;12.706;2024-02-16T03:03:48;7.50;;;4.05;;
83026;SDS011;72842;56.038;12.706;2024-02-16T03:06:16;7.70;;;4.50;;
83026;SDS011;72842;56.038;12.706;2024-02-16T03:08:46;6.68;;;3.75;;
83026;SDS011;72842;56.038;12.706;2024-02-16T03:11:11;6.80;;;4.05;;
83026;SDS011;72842;56.038;12.706;2024-02-16T03:13:37;6.65;;;3.60;;
83026;SDS011;72842;56.038;12.706;2024-02-16T03:16:02;6.25;;;4.53;;
83026;SDS011;72842;56.038;12.706;2024-02-16T03:18:31;6.03;;;3.85;;
83026;SDS011;72842;56.038;12.706;2024-02-16T03:20:58;6.50;;;4.38;;
83026;SDS011;72842;56.038;12.706;2024-02-16T03:23:23;7.50;;;4.03;;
83026;SDS011;72842;56.038;12.706;2024-02-16T03:25:49;6.93;;;4.93;;
83026;SDS011;72842;56.038;12.706;2024-02-16T03:28:14;7.35;;;4.88;;
83026;SDS011;72842;56.038;12.706;2024-02-16T03:30:40;6.95;;;4.75;;
83026;SDS011;72842;56.038;12.706;2024-02-16T03:33:07;7.57;;;4.43;;
83026;SDS011;72842;56.038;12.706;2024-02-16T03:35:33;8.57;;;4.25;;
83026;SDS011;72842;56.038;12.706;2024-02-16T03:37:59;6.10;;;4.63;;
83026;SDS011;72842;56.038;12.706;2024-02-16T03:40:24;5.63;;;3.65;;
83026;SDS011;72842;56.038;12.706;2024-02-16T03:42:51;6.28;;;4.32;;
83026;SDS011;72842;56.038;12.706;2024-02-16T03:45:16;6.53;;;3.78;;
83026;SDS011;72842;56.038;12.706;2024-02-16T03:47:42;6.38;;;4.45;;
83026;SDS011;72842;56.038;12.706;2024-02-16T03:50:08;6.68;;;4.20;;
83026;SDS011;72842;56.038;12.706;2024-02-16T03:52:34;5.10;;;3.22;;
83026;SDS011;72842;56.038;12.706;2024-02-16T03:55:00;5.68;;;4.25;;
83026;SDS011;72842;56.038;12.706;2024-02-16T03:57:25;6.03;;;4.45;;
83026;SDS011;72842;56.038;12.706;2024-02-16T03:59:51;6.10;;;4.05;;
83026;SDS011;72842;56.038;12.706;2024-02-16T04:02:17;5.10;;;4.13;;
83026;SDS011;72842;56.038;12.706;2024-02-16T04:04:42;5.93;;;3.40;;
83026;SDS011;72842;56.038;12.706;2024-02-16T04:07:07;5.22;;;2.95;;
83026;SDS011;72842;56.038;12.706;2024-02-16T04:09:33;5.00;;;3.05;;
83026;SDS011;72842;56.038;12.706;2024-02-16T04:12:00;4.70;;;4.00;;
83026;SDS011;72842;56.038;12.706;2024-02-16T04:14:26;5.70;;;3.38;;
83026;SDS011;72842;56.038;12.706;2024-02-16T04:16:52;5.78;;;3.22;;
83026;SDS011;72842;56.038;12.706;2024-02-16T04:19:18;4.68;;;2.92;;
83026;SDS011;72842;56.038;12.706;2024-02-16T04:21:43;5.75;;;3.40;;
83026;SDS011;72842;56.038;12.706;2024-02-16T04:24:09;5.00;;;3.88;;
83026;SDS011;72842;56.038;12.706;2024-02-16T04:26:34;5.43;;;3.78;;
83026;SDS011;72842;56.038;12.706;2024-02-16T04:29:00;5.85;;;3.53;;
83026;SDS011;72842;56.038;12.706;2024-02-16T04:31:25;4.75;;;3.00;;
83026;SDS011;72842;56.038;12.706;2024-02-16T04:33:51;5.95;;;2.97;;
83026;SDS011;72842;56.038;12.706;2024-02-16T04:36:18;6.70;;;4.20;;
83026;SDS011;72842;56.038;12.706;2024-02-16T04:38:43;5.95;;;3.78;;
83026;SDS011;72842;56.038;12.706;2024-02-16T04:41:09;7.18;;;3.67;;
83026;SDS011;72842;56.038;12.706;2024-02-16T04:43:34;5.90;;;3.83;;
83026;SDS011;72842;56.038;12.706;2024-02-16T04:46:00;6.93;;;3.38;;
83026;SDS011;72842;56.038;12.706;2024-02-16T04:48:26;5.78;;;3.78;;
83026;SDS011;72842;56.038;12.706;2024-02-16T04:50:51;6.40;;;3.92;;
83026;SDS011;72842;56.038;12.706;2024-02-16T04:53:17;6.75;;;3.67;;
83026;SDS011;72842;56.038;12.706;2024-02-16T04:55:42;7.25;;;4.80;;
83026;SDS011;72842;56.038;12.706;2024-02-16T04:58:08;8.18;;;5.50;;
83026;SDS011;72842;56.038;12.706;2024-02-16T05:00:37;6.70;;;3.95;;
83026;SDS011;72842;56.038;12.706;2024-02-16T05:03:03;7.10;;;4.18;;
83026;SDS011;72842;56.038;12.706;2024-02-16T05:05:29;7.70;;;4.30;;
83026;SDS011;72842;56.038;12.706;2024-02-16T05:07:55;6.40;;;4.80;;
83026;SDS011;72842;56.038;12.706;2024-02-16T05:10:21;8.43;;;4.55;;
83026;SDS011;72842;56.038;12.706;2024-02-16T05:12:46;7.00;;;4.00;;
83026;SDS011;72842;56.038;12.706;2024-02-16T05:15:12;7.78;;;5.03;;
83026;SDS011;72842;56.038;12.706;2024-02-16T05:17:40;7.25;;;4.80;;
83026;SDS011;72842;56.038;12.706;2024-02-16T05:20:10;7.63;;;4.68;;
83026;SDS011;72842;56.038;12.706;2024-02-16T05:22:41;8.82;;;6.18;;
83026;SDS011;72842;56.038;12.706;2024-02-16T05:25:11;9.18;;;6.50;;
83026;SDS011;72842;56.038;12.706;2024-02-16T05:27:40;8.52;;;5.53;;
83026;SDS011;72842;56.038;12.706;2024-02-16T05:30:06;8.35;;;6.53;;
83026;SDS011;72842;56.038;12.706;2024-02-16T05:32:34;8.15;;;6.85;;
83026;SDS011;72842;56.038;12.706;2024-02-16T05:35:01;9.93;;;6.45;;
83026;SDS011;72842;56.038;12.706;2024-02-16T05:37:30;10.85;;;6.80;;
83026;SDS011;72842;56.038;12.706;2024-02-16T05:39:57;10.60;;;5.53;;
83026;SDS011;72842;56.038;12.706;2024-02-16T05:42:33;9.05;;;6.95;;
83026;SDS011;72842;56.038;12.706;2024-02-16T05:44:59;8.85;;;6.38;;
83026;SDS011;72842;56.038;12.706;2024-02-16T05:47:24;9.88;;;6.50;;
83026;SDS011;72842;56.038;12.706;2024-02-16T05:49:49;9.50;;;6.55;;
83026;SDS011;72842;56.038;12.706;2024-02-16T05:52:15;10.07;;;7.35;;
83026;SDS011;72842;56.038;12.706;2024-02-16T05:54:46;10.10;;;7.05;;
83026;SDS011;72842;56.038;12.706;2024-02-16T05:57:13;11.48;;;7.53;;
83026;SDS011;72842;56.038;12.706;2024-02-16T05:59:39;11.02;;;7.90;;
83026;SDS011;72842;56.038;12.706;2024-02-16T06:02:06;9.50;;;7.43;;
83026;SDS011;72842;56.038;12.706;2024-02-16T06:04:32;9.75;;;7.55;;
83026;SDS011;72842;56.038;12.706;2024-02-16T06:06:58;9.82;;;6.93;;
83026;SDS011;72842;56.038;12.706;2024-02-16T06:09:24;10.45;;;7.00;;
83026;SDS011;72842;56.038;12.706;2024-02-16T06:11:49;13.13;;;7.93;;
83026;SDS011;72842;56.038;12.706;2024-02-16T06:14:14;9.75;;;8.10;;
83026;SDS011;72842;56.038;12.706;2024-02-16T06:16:40;10.35;;;8.07;;
83026;SDS011;72842;56.038;12.706;2024-02-16T06:19:07;11.85;;;8.40;;
83026;SDS011;72842;56.038;12.706;2024-02-16T06:21:33;10.85;;;6.28;;
83026;SDS011;72842;56.038;12.706;2024-02-16T06:23:59;10.63;;;8.55;;
83026;SDS011;72842;56.038;12.706;2024-02-16T06:26:25;10.90;;;7.63;;
83026;SDS011;72842;56.038;12.706;2024-02-16T06:28:50;11.18;;;8.73;;
83026;SDS011;72842;56.038;12.706;2024-02-16T06:31:15;10.73;;;8.57;;
83026;SDS011;72842;56.038;12.706;2024-02-16T06:33:41;10.40;;;7.47;;
83026;SDS011;72842;56.038;12.706;2024-02-16T06:36:06;11.90;;;8.13;;
83026;SDS011;72842;56.038;12.706;2024-02-16T06:38:32;11.27;;;8.10;;
83026;SDS011;72842;56.038;12.706;2024-02-16T06:40:57;10.93;;;8.15;;
83026;SDS011;72842;56.038;12.706;2024-02-16T06:43:23;13.85;;;8.73;;
83026;SDS011;72842;56.038;12.706;2024-02-16T06:45:48;12.73;;;7.75;;
83026;SDS011;72842;56.038;12.706;2024-02-16T06:48:14;12.52;;;8.18;;
83026;SDS011;72842;56.038;12.706;2024-02-16T06:50:40;10.80;;;7.60;;
83026;SDS011;72842;56.038;12.706;2024-02-16T06:53:05;12.20;;;8.60;;
83026;SDS011;72842;56.038;12.706;2024-02-16T06:55:31;10.10;;;7.07;;
83026;SDS011;72842;56.038;12.706;2024-02-16T06:57:56;9.27;;;7.95;;
83026;SDS011;72842;56.038;12.706;2024-02-16T07:00:22;10.40;;;7.30;;
83026;SDS011;72842;56.038;12.706;2024-02-16T07:02:47;11.38;;;7.50;;
83026;SDS011;72842;56.038;12.706;2024-02-16T07:05:13;10.55;;;8.05;;
83026;SDS011;72842;56.038;12.706;2024-02-16T07:07:38;12.25;;;8.23;;
83026;SDS011;72842;56.038;12.706;2024-02-16T07:10:04;10.70;;;8.55;;
83026;SDS011;72842;56.038;12.706;2024-02-16T07:12:30;10.82;;;8.70;;
83026;SDS011;72842;56.038;12.706;2024-02-16T07:14:58;12.60;;;8.05;;
83026;SDS011;72842;56.038;12.706;2024-02-16T07:17:23;9.63;;;7.05;;
83026;SDS011;72842;56.038;12.706;2024-02-16T07:19:48;12.95;;;8.73;;
83026;SDS011;72842;56.038;12.706;2024-02-16T07:22:14;9.02;;;6.93;;
83026;SDS011;72842;56.038;12.706;2024-02-16T07:24:39;10.20;;;8.07;;
83026;SDS011;72842;56.038;12.706;2024-02-16T07:27:05;9.75;;;6.95;;
83026;SDS011;72842;56.038;12.706;2024-02-16T07:29:31;11.38;;;8.82;;
83026;SDS011;72842;56.038;12.706;2024-02-16T07:31:56;10.52;;;8.10;;
83026;SDS011;72842;56.038;12.706;2024-02-16T07:34:22;9.40;;;7.75;;
83026;SDS011;72842;56.038;12.706;2024-02-16T07:36:48;9.30;;;7.45;;
83026;SDS011;72842;56.038;12.706;2024-02-16T07:39:13;13.40;;;8.05;;
83026;SDS011;72842;56.038;12.706;2024-02-16T07:41:39;8.77;;;6.68;;
83026;SDS011;72842;56.038;12.706;2024-02-16T07:44:04;9.18;;;7.05;;
83026;SDS011;72842;56.038;12.706;2024-02-16T07:46:30;10.57;;;6.85;;
83026;SDS011;72842;56.038;12.706;2024-02-16T07:48:56;9.55;;;6.55;;
83026;SDS011;72842;56.038;12.706;2024-02-16T07:51:21;10.75;;;8.15;;
83026;SDS011;72842;56.038;12.706;2024-02-16T07:53:47;9.23;;;8.23;;
83026;SDS011;72842;56.038;12.706;2024-02-16T07:56:12;9.68;;;7.47;;
83026;SDS011;72842;56.038;12.706;2024-02-16T07:58:38;10.88;;;8.02;;
83026;SDS011;72842;56.038;12.706;2024-02-16T08:01:08;8.27;;;6.50;;
83026;SDS011;72842;56.038;12.706;2024-02-16T08:03:36;9.80;;;7.07;;
83026;SDS011;72842;56.038;12.706;2024-02-16T08:06:03;8.65;;;7.32;;
83026;SDS011;72842;56.038;12.706;2024-02-16T08:08:28;9.90;;;7.60;;
83026;SDS011;72842;56.038;12.706;2024-02-16T08:10:54;8.63;;;7.47;;
83026;SDS011;72842;56.038;12.706;2024-02-16T08:13:19;9.23;;;5.97;;
83026;SDS011;72842;56.038;12.706;2024-02-16T08:15:46;9.68;;;7.82;;
83026;SDS011;72842;56.038;12.706;2024-02-16T08:18:12;8.43;;;6.63;;
83026;SDS011;72842;56.038;12.706;2024-02-16T08:20:38;9.50;;;6.82;;
83026;SDS011;72842;56.038;12.706;2024-02-16T08:23:04;7.43;;;6.63;;
83026;SDS011;72842;56.038;12.706;2024-02-16T08:25:29;8.25;;;6.00;;
83026;SDS011;72842;56.038;12.706;2024-02-16T08:27:55;9.40;;;6.50;;
83026;SDS011;72842;56.038;12.706;2024-02-16T08:30:21;8.18;;;7.13;;
83026;SDS011;72842;56.038;12.706;2024-02-16T08:32:47;8.27;;;6.68;;
83026;SDS011;72842;56.038;12.706;2024-02-16T08:35:13;8.98;;;6.32;;
83026;SDS011;72842;56.038;12.706;2024-02-16T08:37:39;8.90;;;7.10;;
83026;SDS011;72842;56.038;12.706;2024-02-16T08:40:05;7.18;;;6.05;;
83026;SDS011;72842;56.038;12.706;2024-02-16T08:42:31;7.80;;;6.20;;
83026;SDS011;72842;56.038;12.706;2024-02-16T08:44:56;7.88;;;6.22;;
83026;SDS011;72842;56.038;12.706;2024-02-16T08:47:25;8.02;;;5.40;;
83026;SDS011;72842;56.038;12.706;2024-02-16T08:49:50;10.35;;;7.00;;
83026;SDS011;72842;56.038;12.706;2024-02-16T08:52:16;9.63;;;6.97;;
83026;SDS011;72842;56.038;12.706;2024-02-16T08:54:45;9.13;;;6.57;;
83026;SDS011;72842;56.038;12.706;2024-02-16T08:57:10;8.63;;;6.63;;
83026;SDS011;72842;56.038;12.706;2024-02-16T08:59:35;7.82;;;5.93;;
83026;SDS011;72842;56.038;12.706;2024-02-16T09:02:01;8.77;;;6.60;;
83026;SDS011;72842;56.038;12.706;2024-02-16T09:04:26;7.72;;;6.93;;
83026;SDS011;72842;56.038;12.706;2024-02-16T09:06:52;10.48;;;6.90;;
83026;SDS011;72842;56.038;12.706;2024-02-16T09:09:18;7.57;;;5.32;;
83026;SDS011;72842;56.038;12.706;2024-02-16T09:11:44;7.55;;;6.32;;
83026;SDS011;72842;56.038;12.706;2024-02-16T09:14:09;8.40;;;5.93;;
83026;SDS011;72842;56.038;12.706;2024-02-16T09:16:34;8.90;;;6.18;;
83026;SDS011;72842;56.038;12.706;2024-02-16T09:19:00;8.35;;;5.50;;
83026;SDS011;72842;56.038;12.706;2024-02-16T09:21:25;8.13;;;6.43;;
83026;SDS011;72842;56.038;12.706;2024-02-16T09:23:53;7.32;;;5.30;;
83026;SDS011;72842;56.038;12.706;2024-02-16T09:26:18;9.30;;;5.72;;
83026;SDS011;72842;56.038;12.706;2024-02-16T09:28:45;8.13;;;6.28;;
83026;SDS011;72842;56.038;12.706;2024-02-16T09:31:19;9.38;;;6.50;;
83026;SDS011;72842;56.038;12.706;2024-02-16T09:33:46;8.50;;;5.72;;
83026;SDS011;72842;56.038;12.706;2024-02-16T09:36:11;7.20;;;6.43;;
83026;SDS011;72842;56.038;12.706;2024-02-16T09:38:37;8.30;;;6.13;;
83026;SDS011;72842;56.038;12.706;2024-02-16T09:41:02;7.28;;;6.55;;
83026;SDS011;72842;56.038;12.706;2024-02-16T09:43:29;9.90;;;6.00;;
83026;SDS011;72842;56.038;12.706;2024-02-16T09:45:55;7.05;;;6.35;;
83026;SDS011;72842;56.038;12.706;2024-02-16T09:48:23;7.45;;;6.68;;
83026;SDS011;72842;56.038;12.706;2024-02-16T09:50:51;8.40;;;6.20;;
83026;SDS011;72842;56.038;12.706;2024-02-16T09:53:19;6.78;;;6.13;;
83026;SDS011;72842;56.038;12.706;2024-02-16T09:55:46;6.18;;;4.97;;
83026;SDS011;72842;56.038;12.706;2024-02-16T09:58:14;6.53;;;5.32;;
83026;SDS011;72842;56.038;12.706;2024-02-16T10:00:47;7.78;;;5.63;;
83026;SDS011;72842;56.038;12.706;2024-02-16T10:03:29;7.68;;;5.53;;
83026;SDS011;72842;56.038;12.706;2024-02-16T10:06:07;7.47;;;5.32;;
83026;SDS011;72842;56.038;12.706;2024-02-16T10:08:34;9.05;;;5.25;;
83026;SDS011;72842;56.038;12.706;2024-02-16T10:11:12;8.30;;;5.85;;
83026;SDS011;72842;56.038;12.706;2024-02-16T10:13:39;9.20;;;6.65;;
83026;SDS011;72842;56.038;12.706;2024-02-16T10:16:09;9.15;;;6.90;;
83026;SDS011;72842;56.038;12.706;2024-02-16T10:18:36;9.88;;;5.15;;
83026;SDS011;72842;56.038;12.706;2024-02-16T10:21:03;7.78;;;5.50;;
83026;SDS011;72842;56.038;12.706;2024-02-16T10:23:28;8.48;;;7.43;;
83026;SDS011;72842;56.038;12.706;2024-02-16T10:25:54;7.25;;;5.78;;
83026;SDS011;72842;56.038;12.706;2024-02-16T10:28:20;8.38;;;5.78;;
83026;SDS011;72842;56.038;12.706;2024-02-16T10:30:52;6.72;;;5.25;;
83026;SDS011;72842;56.038;12.706;2024-02-16T10:33:23;10.50;;;6.22;;
83026;SDS011;72842;56.038;12.706;2024-02-16T10:35:49;7.72;;;5.35;;
83026;SDS011;72842;56.038;12.706;2024-02-16T10:38:16;7.47;;;5.82;;
83026;SDS011;72842;56.038;12.706;2024-02-16T10:40:44;7.50;;;5.65;;
83026;SDS011;72842;56.038;12.706;2024-02-16T10:43:13;7.90;;;5.53;;
83026;SDS011;72842;56.038;12.706;2024-02-16T10:45:40;7.57;;;5.55;;
83026;SDS011;72842;56.038;12.706;2024-02-16T10:48:06;7.15;;;5.50;;
83026;SDS011;72842;56.038;12.706;2024-02-16T10:50:33;9.00;;;5.57;;
83026;SDS011;72842;56.038;12.706;2024-02-16T10:53:03;7.28;;;6.32;;
83026;SDS011;72842;56.038;12.706;2024-02-16T10:55:33;7.85;;;5.72;;
83026;SDS011;72842;56.038;12.706;2024-02-16T10:58:00;6.53;;;5.80;;
83026;SDS011;72842;56.038;12.706;2024-02-16T11:00:25;7.35;;;5.22;;
83026;SDS011;72842;56.038;12.706;2024-02-16T11:02:54;7.20;;;5.03;;
83026;SDS011;72842;56.038;12.706;2024-02-16T11:05:35;8.38;;;5.72;;
83026;SDS011;72842;56.038;12.706;2024-02-16T11:08:11;7.88;;;5.78;;
83026;SDS011;72842;56.038;12.706;2024-02-16T11:10:38;6.40;;;5.57;;
83026;SDS011;72842;56.038;12.706;2024-02-16T11:13:04;9.73;;;4.90;;
83026;SDS011;72842;56.038;12.706;2024-02-16T11:15:33;8.20;;;5.57;;
83026;SDS011;72842;56.038;12.706;2024-02-16T11:18:03;7.00;;;5.28;;
83026;SDS011;72842;56.038;12.706;2024-02-16T11:20:35;6.32;;;5.32;;
83026;SDS011;72842;56.038;12.706;2024-02-16T11:23:05;7.45;;;4.88;;
83026;SDS011;72842;56.038;12.706;2024-02-16T11:25:33;6.85;;;4.80;;
83026;SDS011;72842;56.038;12.706;2024-02-16T11:27:59;6.60;;;5.93;;
83026;SDS011;72842;56.038;12.706;2024-02-16T11:30:26;8.35;;;5.60;;
83026;SDS011;72842;56.038;12.706;2024-02-16T11:32:52;5.78;;;4.35;;
83026;SDS011;72842;56.038;12.706;2024-02-16T11:35:17;6.47;;;5.20;;
83026;SDS011;72842;56.038;12.706;2024-02-16T11:37:43;7.38;;;6.07;;
83026;SDS011;72842;56.038;12.706;2024-02-16T11:40:13;6.90;;;6.10;;
83026;SDS011;72842;56.038;12.706;2024-02-16T11:42:39;6.53;;;5.05;;
83026;SDS011;72842;56.038;12.706;2024-02-16T11:45:06;5.65;;;4.55;;
83026;SDS011;72842;56.038;12.706;2024-02-16T11:47:36;5.82;;;4.75;;
83026;SDS011;72842;56.038;12.706;2024-02-16T11:50:05;7.13;;;6.43;;
83026;SDS011;72842;56.038;12.706;2024-02-16T11:52:36;6.05;;;4.88;;
83026;SDS011;72842;56.038;12.706;2024-02-16T11:55:09;7.15;;;4.78;;
83026;SDS011;72842;56.038;12.706;2024-02-16T11:57:36;7.95;;;4.90;;
83026;SDS011;72842;56.038;12.706;2024-02-16T12:00:02;6.20;;;4.43;;
83026;SDS011;72842;56.038;12.706;2024-02-16T12:02:33;5.55;;;4.57;;
83026;SDS011;72842;56.038;12.706;2024-02-16T12:05:00;5.95;;;5.00;;
83026;SDS011;72842;56.038;12.706;2024-02-16T12:07:26;5.65;;;5.07;;
83026;SDS011;72842;56.038;12.706;2024-02-16T12:10:49;6.43;;;4.30;;
83026;SDS011;72842;56.038;12.706;2024-02-16T12:13:16;8.20;;;5.38;;
83026;SDS011;72842;56.038;12.706;2024-02-16T12:15:46;7.03;;;5.63;;
83026;SDS011;72842;56.038;12.706;2024-02-16T12:18:22;5.43;;;4.30;;
83026;SDS011;72842;56.038;12.706;2024-02-16T12:23:27;7.50;;;4.22;;
83026;SDS011;72842;56.038;12.706;2024-02-16T12:25:53;7.18;;;4.07;;
83026;SDS011;72842;56.038;12.706;2024-02-16T12:28:19;6.20;;;3.63;;
83026;SDS011;72842;56.038;12.706;2024-02-16T12:30:53;6.68;;;4.03;;
83026;SDS011;72842;56.038;12.706;2024-02-16T12:33:20;6.32;;;4.85;;
83026;SDS011;72842;56.038;12.706;2024-02-16T12:35:46;5.20;;;4.68;;
83026;SDS011;72842;56.038;12.706;2024-02-16T12:38:11;6.88;;;4.90;;
83026;SDS011;72842;56.038;12.706;2024-02-16T12:40:37;5.60;;;5.07;;
83026;SDS011;72842;56.038;12.706;2024-02-16T12:43:03;6.45;;;5.05;;
83026;SDS011;72842;56.038;12.706;2024-02-16T12:45:28;6.45;;;4.85;;
83026;SDS011;72842;56.038;12.706;2024-02-16T12:47:54;5.88;;;5.22;;
83026;SDS011;72842;56.038;12.706;2024-02-16T12:50:19;6.82;;;4.55;;
83026;SDS011;72842;56.038;12.706;2024-02-16T12:52:45;7.60;;;4.30;;
83026;SDS011;72842;56.038;12.706;2024-02-16T12:55:11;5.80;;;4.82;;
83026;SDS011;72842;56.038;12.706;2024-02-16T12:57:36;5.75;;;5.07;;
83026;SDS011;72842;56.038;12.706;2024-02-16T13:00:03;6.82;;;4.47;;
83026;SDS011;72842;56.038;12.706;2024-02-16T13:02:29;6.70;;;5.35;;
83026;SDS011;72842;56.038;12.706;2024-02-16T13:04:54;6.13;;;5.30;;
83026;SDS011;72842;56.038;12.706;2024-02-16T13:07:20;8.10;;;4.00;;
83026;SDS011;72842;56.038;12.706;2024-02-16T13:09:46;6.82;;;4.45;;
83026;SDS011;72842;56.038;12.706;2024-02-16T13:12:11;6.50;;;4.10;;
83026;SDS011;72842;56.038;12.706;2024-02-16T13:14:37;6.20;;;4.15;;
83026;SDS011;72842;56.038;12.706;2024-02-16T13:17:03;7.93;;;4.35;;
83026;SDS011;72842;56.038;12.706;2024-02-16T13:19:29;6.90;;;4.55;;
83026;SDS011;72842;56.038;12.706;2024-02-16T13:21:54;5.35;;;4.28;;
83026;SDS011;72842;56.038;12.706;2024-02-16T13:24:20;6.93;;;4.78;;
83026;SDS011;72842;56.038;12.706;2024-02-16T13:26:45;7.10;;;5.30;;
83026;SDS011;72842;56.038;12.706;2024-02-16T13:29:11;7.10;;;5.82;;
83026;SDS011;72842;56.038;12.706;2024-02-16T13:31:36;6.03;;;4.22;;
83026;SDS011;72842;56.038;12.706;2024-02-16T13:34:02;6.30;;;5.60;;
83026;SDS011;72842;56.038;12.706;2024-02-16T13:36:27;7.15;;;4.00;;
83026;SDS011;72842;56.038;12.706;2024-02-16T13:38:53;4.97;;;4.00;;
83026;SDS011;72842;56.038;12.706;2024-02-16T13:41:18;6.28;;;5.63;;
83026;SDS011;72842;56.038;12.706;2024-02-16T13:43:44;5.10;;;3.75;;
83026;SDS011;72842;56.038;12.706;2024-02-16T13:46:10;6.82;;;4.15;;
83026;SDS011;72842;56.038;12.706;2024-02-16T13:48:35;8.95;;;4.47;;
83026;SDS011;72842;56.038;12.706;2024-02-16T13:51:02;5.45;;;3.70;;
83026;SDS011;72842;56.038;12.706;2024-02-16T13:53:28;6.30;;;4.57;;
83026;SDS011;72842;56.038;12.706;2024-02-16T13:55:55;6.60;;;4.80;;
83026;SDS011;72842;56.038;12.706;2024-02-16T13:58:20;6.85;;;5.15;;
83026;SDS011;72842;56.038;12.706;2024-02-16T14:00:46;5.80;;;4.45;;
83026;SDS011;72842;56.038;12.706;2024-02-16T14:03:14;7.57;;;4.53;;
83026;SDS011;72842;56.038;12.706;2024-02-16T14:05:39;8.68;;;4.25;;
83026;SDS011;72842;56.038;12.706;2024-02-16T14:08:06;5.72;;;4.35;;
83026;SDS011;72842;56.038;12.706;2024-02-16T14:10:36;4.90;;;3.92;;
83026;SDS011;72842;56.038;12.706;2024-02-16T14:13:01;8.32;;;4.97;;
83026;SDS011;72842;56.038;12.706;2024-02-16T14:15:27;6.25;;;4.45;;
83026;SDS011;72842;56.038;12.706;2024-02-16T14:17:52;5.53;;;4.40;;
83026;SDS011;72842;56.038;12.706;2024-02-16T14:20:18;6.88;;;4.90;;
83026;SDS011;72842;56.038;12.706;2024-02-16T14:22:45;7.57;;;4.55;;
83026;SDS011;72842;56.038;12.706;2024-02-16T14:25:11;6.72;;;4.38;;
83026;SDS011;72842;56.038;12.706;2024-02-16T14:27:38;4.93;;;3.60;;
83026;SDS011;72842;56.038;12.706;2024-02-16T14:30:04;7.47;;;4.55;;
83026;SDS011;72842;56.038;12.706;2024-02-16T14:32:31;5.13;;;3.67;;